createdAt,value
2019-02-27T00:02:11.932Z,2.00
2019-02-27T00:04:39.329Z,2.04
2019-02-27T00:07:06.680Z,1.99
2019-02-27T00:09:34.095Z,2.14
2019-02-27T00:12:02.351Z,2.28
2019-02-27T00:17:57.957Z,2.40
2019-02-27T00:20:25.528Z,2.40
2019-02-27T00:22:53.009Z,2.31
2019-02-27T00:25:20.529Z,2.19
2019-02-27T00:27:49.167Z,2.02
2019-02-27T00:30:17.449Z,1.98
2019-02-27T00:32:44.972Z,1.88
2019-02-27T00:35:12.489Z,1.90
2019-02-27T00:37:39.969Z,1.78
2019-02-27T00:40:07.569Z,1.63
2019-02-27T00:42:34.890Z,1.53
2019-02-27T00:51:11.972Z,1.54
2019-02-27T00:58:03.494Z,1.42
2019-02-27T01:00:30.835Z,1.41
2019-02-27T01:19:09.126Z,1.45
2019-02-27T01:22:25.428Z,1.43
2019-02-27T01:37:03.267Z,0.97
2019-02-27T01:47:24.989Z,0.99
2019-02-27T01:56:59.894Z,1.01
2019-02-27T02:03:30.239Z,0.99
2019-02-27T02:06:34.314Z,0.92
2019-02-27T02:10:02.749Z,0.88
2019-02-27T02:13:38.574Z,0.75
2019-02-27T02:20:16.083Z,0.56
2019-02-27T02:22:58.199Z,0.63
2019-02-27T02:26:10.477Z,0.60
2019-02-27T02:29:10.559Z,0.55
2019-02-27T02:31:49.159Z,0.69
2019-02-27T02:35:14.832Z,0.71
2019-02-27T02:38:24.521Z,0.70
2019-02-27T02:41:19.014Z,0.74
2019-02-27T02:44:23.480Z,0.61
2019-02-27T02:47:44.710Z,0.65
2019-02-27T02:51:04.189Z,0.89
2019-02-27T02:54:24.637Z,0.91
2019-02-27T02:57:35.891Z,0.68
2019-02-27T03:00:21.457Z,0.49
2019-02-27T03:03:22.659Z,0.50
2019-02-27T03:06:17.590Z,0.47
2019-02-27T03:09:10.916Z,0.47
2019-02-27T03:12:10.746Z,0.40
2019-02-27T03:15:07.774Z,0.25
2019-02-27T03:18:01.049Z,0.19
2019-02-27T03:21:02.724Z,0.28
2019-02-27T03:24:11.126Z,0.31
2019-02-27T03:27:09.666Z,0.38
2019-02-27T03:30:05.331Z,0.29
2019-02-27T03:33:06.457Z,0.32
2019-02-27T03:36:03.448Z,0.27
2019-02-27T03:39:06.071Z,0.23
2019-02-27T03:41:58.413Z,0.31
2019-02-27T03:44:56.202Z,0.14
2019-02-27T03:47:56.944Z,0.06
2019-02-27T03:51:03.123Z,-0.14
2019-02-27T03:54:03.505Z,-0.11
2019-02-27T03:57:18.936Z,-0.06
2019-02-27T04:00:04.882Z,0.12
2019-02-27T04:03:25.882Z,0.13
2019-02-27T04:06:20.159Z,0.15
2019-02-27T04:09:00.055Z,0.09
2019-02-27T04:11:27.962Z,-0.01
2019-02-27T04:14:03.346Z,-0.13
2019-02-27T04:16:29.410Z,-0.16
2019-02-27T04:18:56.146Z,-0.13
2019-02-27T04:21:26.102Z,-0.03
2019-02-27T04:23:53.875Z,-0.03
2019-02-27T04:26:21.235Z,-0.01
2019-02-27T04:28:48.599Z,0.02
2019-02-27T04:31:15.954Z,0.04
2019-02-27T04:33:43.340Z,-0.05
2019-02-27T04:36:12.826Z,-0.17
2019-02-27T04:38:39.978Z,-0.14
2019-02-27T04:41:07.309Z,-0.32
2019-02-27T04:43:34.664Z,-0.32
2019-02-27T04:46:01.985Z,-0.24
2019-02-27T04:48:29.904Z,-0.18
2019-02-27T04:50:57.987Z,-0.12
2019-02-27T04:53:25.344Z,-0.03
2019-02-27T04:55:52.668Z,-0.10
2019-02-27T04:58:19.978Z,-0.10
2019-02-27T05:00:47.354Z,-0.04
2019-02-27T05:03:14.737Z,-0.12
2019-02-27T05:05:42.124Z,-0.14
2019-02-27T05:08:09.407Z,-0.12
2019-02-27T05:10:38.214Z,-0.08
2019-02-27T05:13:06.023Z,-0.07
2019-02-27T05:15:33.399Z,-0.15
2019-02-27T05:18:00.738Z,-0.16
2019-02-27T05:20:28.103Z,-0.18
2019-02-27T05:23:00.171Z,-0.15
2019-02-27T05:25:24.979Z,-0.25
2019-02-27T05:27:52.284Z,-0.23
2019-02-27T05:30:19.679Z,-0.20
2019-02-27T05:32:47.029Z,-0.28
2019-02-27T05:35:14.466Z,-0.35
2019-02-27T05:37:41.819Z,-0.34
2019-02-27T05:40:09.771Z,-0.35
2019-02-27T05:42:39.103Z,-0.32
2019-02-27T05:45:09.895Z,-0.28
2019-02-27T05:47:37.216Z,-0.28
2019-02-27T05:50:05.755Z,-0.28
2019-02-27T05:52:33.209Z,-0.23
2019-02-27T05:55:00.586Z,-0.21
2019-02-27T05:57:27.921Z,-0.21
2019-02-27T05:59:55.364Z,-0.20
2019-02-27T06:02:22.699Z,-0.31
2019-02-27T06:04:50.060Z,-0.34
2019-02-27T06:07:19.037Z,-0.28
2019-02-27T06:09:48.932Z,-0.29
2019-02-27T06:12:15.934Z,-0.31
2019-02-27T06:14:43.294Z,-0.30
2019-02-27T06:17:12.861Z,-0.25
2019-02-27T06:19:40.291Z,-0.25
2019-02-27T06:22:07.630Z,-0.24
2019-02-27T06:24:34.999Z,-0.11
2019-02-27T06:27:06.060Z,-0.03
2019-02-27T06:29:31.624Z,-0.06
2019-02-27T06:31:59.414Z,-0.06
2019-02-27T06:34:26.767Z,0.13
2019-02-27T06:36:54.138Z,0.58
2019-02-27T06:39:21.484Z,1.09
2019-02-27T06:41:49.786Z,1.65
2019-02-27T06:44:19.119Z,2.64
2019-02-27T06:46:46.634Z,2.52
2019-02-27T06:49:17.260Z,2.63
2019-02-27T06:51:43.225Z,2.97
2019-02-27T06:54:10.580Z,3.53
2019-02-27T06:56:40.769Z,4.20
2019-02-27T06:59:08.082Z,4.82
2019-02-27T07:01:35.468Z,5.10
2019-02-27T07:04:04.819Z,5.42
2019-02-27T07:06:32.060Z,5.79
2019-02-27T07:08:59.865Z,6.04
2019-02-27T07:11:27.234Z,5.89
2019-02-27T07:13:54.586Z,6.55
2019-02-27T07:16:22.911Z,6.61
2019-02-27T07:18:51.059Z,6.89
2019-02-27T07:21:18.504Z,7.60
2019-02-27T07:23:47.903Z,7.71
2019-02-27T07:26:15.845Z,8.07
2019-02-27T07:28:44.100Z,9.46
2019-02-27T07:31:12.481Z,9.32
2019-02-27T07:33:40.661Z,9.38
2019-02-27T07:36:08.689Z,9.47
2019-02-27T07:38:36.038Z,9.76
2019-02-27T07:41:03.394Z,9.88
2019-02-27T07:43:30.729Z,9.87
2019-02-27T07:45:58.079Z,9.83
2019-02-27T07:48:25.414Z,10.75
2019-02-27T07:50:52.944Z,11.00
2019-02-27T07:53:20.284Z,10.88
2019-02-27T07:55:48.421Z,11.02
2019-02-27T07:58:15.834Z,11.42
2019-02-27T08:00:43.146Z,11.75
2019-02-27T08:03:12.986Z,10.85
2019-02-27T08:05:39.878Z,12.71
2019-02-27T08:08:07.299Z,13.54
2019-02-27T08:10:36.982Z,13.27
2019-02-27T08:13:04.348Z,12.57
2019-02-27T08:15:31.728Z,12.39
2019-02-27T08:17:59.223Z,12.82
2019-02-27T08:20:26.720Z,13.09
2019-02-27T08:22:54.244Z,13.03
2019-02-27T08:25:21.889Z,13.07
2019-02-27T08:27:49.375Z,12.93
2019-02-27T08:30:18.426Z,13.28
2019-02-27T08:32:46.110Z,13.70
2019-02-27T08:35:16.762Z,13.63
2019-02-27T08:37:44.313Z,13.98
2019-02-27T08:40:11.875Z,13.31
2019-02-27T08:42:40.699Z,12.50
2019-02-27T08:45:08.973Z,12.20
2019-02-27T08:47:36.499Z,11.51
2019-02-27T08:50:05.984Z,11.10
2019-02-27T08:52:34.160Z,10.84
2019-02-27T08:55:05.419Z,10.95
2019-02-27T08:57:30.854Z,10.91
2019-02-27T08:59:58.553Z,10.46
2019-02-27T09:02:29.207Z,10.87
2019-02-27T09:04:55.497Z,11.03
2019-02-27T09:10:44.980Z,10.46
2019-02-27T09:16:09.616Z,11.20
2019-02-27T09:18:37.162Z,11.33
2019-02-27T09:21:04.734Z,11.45
2019-02-27T09:23:32.399Z,11.52
2019-02-27T09:26:02.698Z,11.54
2019-02-27T09:28:29.998Z,11.50
2019-02-27T09:31:03.326Z,11.67
2019-02-27T09:33:29.461Z,11.67
2019-02-27T09:35:57.372Z,11.70
2019-02-27T09:38:25.032Z,11.69
2019-02-27T09:40:52.611Z,11.47
2019-02-27T09:43:20.131Z,11.60
2019-02-27T09:45:47.751Z,11.36
2019-02-27T09:48:15.371Z,11.50
2019-02-27T09:50:47.649Z,11.66
2019-02-27T09:53:14.059Z,11.77
2019-02-27T09:55:41.660Z,11.96
2019-02-27T09:58:11.291Z,12.02
2019-02-27T10:00:44.613Z,12.10
2019-02-27T10:03:12.273Z,12.48
2019-02-27T10:05:40.843Z,12.60
2019-02-27T10:08:08.971Z,12.72
2019-02-27T10:10:36.562Z,12.53
2019-02-27T10:13:04.212Z,12.57
2019-02-27T10:15:31.833Z,12.78
2019-02-27T10:17:59.410Z,12.76
2019-02-27T10:20:26.991Z,12.75
2019-02-27T10:22:54.631Z,13.02
2019-02-27T10:25:22.331Z,13.03
2019-02-27T10:27:50.031Z,13.03
2019-02-27T10:30:17.850Z,12.91
2019-02-27T10:32:45.471Z,13.03
2019-02-27T10:35:14.011Z,13.22
2019-02-27T10:37:41.623Z,13.40
2019-02-27T10:40:11.468Z,13.64
2019-02-27T10:42:40.710Z,13.57
2019-02-27T10:45:10.216Z,13.74
2019-02-27T10:47:39.925Z,13.90
2019-02-27T10:50:07.991Z,13.89
2019-02-27T10:52:35.551Z,14.00
2019-02-27T10:55:03.355Z,14.20
2019-02-27T10:57:32.230Z,13.92
2019-02-27T11:00:03.539Z,14.10
2019-02-27T11:02:31.231Z,14.18
2019-02-27T11:04:58.771Z,14.21
2019-02-27T11:07:26.332Z,14.51
2019-02-27T11:09:53.919Z,14.50
2019-02-27T11:12:21.586Z,14.55
2019-02-27T11:14:49.243Z,14.60
2019-02-27T11:17:16.954Z,14.64
2019-02-27T11:19:44.812Z,14.82
2019-02-27T11:23:06.732Z,14.97
2019-02-27T11:25:56.518Z,15.05
2019-02-27T11:28:31.124Z,15.36
2019-02-27T11:31:38.751Z,15.62
2019-02-27T11:34:13.231Z,16.01
2019-02-27T11:36:40.840Z,17.10
2019-02-27T11:39:08.872Z,18.43
2019-02-27T11:41:36.351Z,18.21
2019-02-27T11:44:05.072Z,18.35
2019-02-27T11:46:35.154Z,17.85
2019-02-27T11:49:03.166Z,17.61
2019-02-27T11:51:31.174Z,17.97
2019-02-27T11:53:59.171Z,18.13
2019-02-27T11:56:26.691Z,18.07
2019-02-27T11:58:57.789Z,18.17
2019-02-27T12:01:25.531Z,18.01
2019-02-27T12:03:53.051Z,17.78
2019-02-27T12:06:20.651Z,17.61
2019-02-27T12:08:48.734Z,17.57
2019-02-27T12:11:16.231Z,17.48
2019-02-27T12:13:43.695Z,17.45
2019-02-27T12:16:11.471Z,17.33
2019-02-27T12:19:08.651Z,17.46
2019-02-27T12:21:34.851Z,17.55
2019-02-27T12:35:56.870Z,17.52
2019-02-27T12:38:56.042Z,17.51
2019-02-27T12:43:14.373Z,17.50
2019-02-27T12:55:01.773Z,17.57
2019-02-27T13:02:46.228Z,17.65
2019-02-27T13:12:42.029Z,17.68
2019-02-27T13:15:12.277Z,17.83
2019-02-27T13:18:43.962Z,17.97
2019-02-27T13:21:37.532Z,17.93
2019-02-27T13:24:22.252Z,18.08
2019-02-27T13:30:41.370Z,18.03
2019-02-27T13:36:51.577Z,18.17
2019-02-27T13:43:05.603Z,18.01
2019-02-27T14:14:53.338Z,17.66
2019-02-27T14:18:21.950Z,17.70
2019-02-27T14:21:56.129Z,17.81
2019-02-27T14:32:38.252Z,17.61
2019-02-27T14:36:01.703Z,17.67
2019-02-27T14:39:07.837Z,17.66
2019-02-27T15:02:33.798Z,17.45
2019-02-27T15:05:06.213Z,17.41
2019-02-27T15:07:30.505Z,17.44
2019-02-27T15:09:57.938Z,17.47
2019-02-27T15:12:25.325Z,17.48
2019-02-27T15:14:52.764Z,17.49
2019-02-27T15:17:20.450Z,17.30
2019-02-27T15:19:48.744Z,17.20
2019-02-27T15:22:20.227Z,17.21
2019-02-27T15:24:45.483Z,17.27
2019-02-27T15:27:12.866Z,17.24
2019-02-27T15:29:40.350Z,17.18
2019-02-27T15:32:07.808Z,17.07
2019-02-27T15:34:35.238Z,16.99
2019-02-27T15:37:04.131Z,16.95
2019-02-27T15:39:31.983Z,16.85
2019-02-27T15:41:59.374Z,16.88
2019-02-27T15:44:26.823Z,16.78
2019-02-27T15:46:56.600Z,16.79
2019-02-27T15:49:23.553Z,16.81
2019-02-27T15:51:51.029Z,16.63
2019-02-27T15:54:23.981Z,16.66
2019-02-27T15:56:47.773Z,16.49
2019-02-27T15:59:15.713Z,16.49
2019-02-27T16:01:43.118Z,16.45
2019-02-27T16:04:10.610Z,16.32
2019-02-27T16:06:39.821Z,16.31
2019-02-27T16:09:08.883Z,16.30
2019-02-27T16:11:36.298Z,16.12
2019-02-27T16:14:09.259Z,16.04
2019-02-27T16:16:33.283Z,15.94
2019-02-27T16:19:00.855Z,15.85
2019-02-27T16:21:28.375Z,15.82
2019-02-27T16:23:56.232Z,15.58
2019-02-27T16:26:27.011Z,15.44
2019-02-27T16:28:53.634Z,15.31
2019-02-27T16:31:21.178Z,15.19
2019-02-27T16:33:48.913Z,15.08
2019-02-27T16:36:16.544Z,14.96
2019-02-27T16:38:44.059Z,14.87
2019-02-27T16:41:11.933Z,14.76
2019-02-27T16:43:39.499Z,14.70
2019-02-27T16:46:08.529Z,14.59
2019-02-27T16:48:36.529Z,14.43
2019-02-27T16:51:04.332Z,14.30
2019-02-27T16:53:31.923Z,14.14
2019-02-27T16:55:59.768Z,13.97
2019-02-27T16:58:32.515Z,13.87
2019-02-27T17:00:57.104Z,13.78
2019-02-27T17:03:24.738Z,13.72
2019-02-27T17:05:52.438Z,13.64
2019-02-27T17:08:20.203Z,13.57
2019-02-27T17:10:51.666Z,13.42
2019-02-27T17:13:17.710Z,13.23
2019-02-27T17:15:45.435Z,12.94
2019-02-27T17:18:13.275Z,12.80
2019-02-27T17:20:45.878Z,12.84
2019-02-27T17:23:11.078Z,12.72
2019-02-27T17:25:38.784Z,12.64
2019-02-27T17:28:06.335Z,12.48
2019-02-27T17:30:37.765Z,12.46
2019-02-27T17:33:04.098Z,12.53
2019-02-27T17:35:32.979Z,12.52
2019-02-27T17:38:00.580Z,12.48
2019-02-27T17:40:29.209Z,12.72
2019-02-27T17:42:57.418Z,12.93
2019-02-27T17:45:28.269Z,12.64
2019-02-27T17:47:56.091Z,12.87
2019-02-27T17:50:31.694Z,12.59
2019-02-27T17:52:58.600Z,12.30
2019-02-27T17:55:26.569Z,12.08
2019-02-27T17:57:58.026Z,12.35
2019-02-27T18:00:34.479Z,12.37
2019-02-27T18:03:05.024Z,12.34
2019-02-27T18:05:35.169Z,12.00
2019-02-27T18:08:04.158Z,11.68
2019-02-27T18:10:37.076Z,12.10
2019-02-27T18:13:02.119Z,12.08
2019-02-27T18:15:30.139Z,12.07
2019-02-27T18:17:58.169Z,12.08
2019-02-27T18:20:26.029Z,12.17
2019-02-27T18:22:54.001Z,12.20
2019-02-27T18:25:21.996Z,12.29
2019-02-27T18:27:49.846Z,12.17
2019-02-27T18:30:18.839Z,12.10
2019-02-27T18:33:03.547Z,12.26
2019-02-27T18:36:05.662Z,12.14
2019-02-27T18:38:32.932Z,11.75
2019-02-27T18:41:01.048Z,11.44
2019-02-27T18:43:30.105Z,11.41
2019-02-27T18:45:58.729Z,12.16
2019-02-27T18:48:26.658Z,12.22
2019-02-27T18:50:55.918Z,12.01
2019-02-27T18:53:24.309Z,11.62
2019-02-27T18:55:52.238Z,11.76
2019-02-27T18:58:20.893Z,11.47
2019-02-27T19:00:49.419Z,11.40
2019-02-27T19:03:17.258Z,11.30
2019-02-27T19:05:45.134Z,11.43
2019-02-27T19:08:13.061Z,11.63
2019-02-27T19:10:42.477Z,11.50
2019-02-27T19:13:10.775Z,11.34
2019-02-27T19:15:39.080Z,11.23
2019-02-27T19:18:07.389Z,11.14
2019-02-27T19:20:35.600Z,11.00
2019-02-27T19:23:03.649Z,10.83
2019-02-27T19:25:34.620Z,10.70
2019-02-27T19:28:04.734Z,10.60
2019-02-27T19:30:34.677Z,10.50
2019-02-27T19:33:03.911Z,10.29
2019-02-27T19:35:32.840Z,10.29
2019-02-27T19:38:01.142Z,10.36
2019-02-27T19:40:30.563Z,10.16
2019-02-27T19:43:02.988Z,9.93
2019-02-27T19:45:30.895Z,10.11
2019-02-27T19:48:00.005Z,10.47
2019-02-27T19:50:28.019Z,10.74
2019-02-27T19:52:56.014Z,11.15
2019-02-27T19:55:27.626Z,11.10
2019-02-27T19:57:55.689Z,11.09
2019-02-27T20:00:25.063Z,10.95
2019-02-27T20:02:56.996Z,10.83
2019-02-27T20:05:24.043Z,10.75
2019-02-27T20:07:52.241Z,10.72
2019-02-27T20:10:21.785Z,10.43
2019-02-27T20:12:52.979Z,10.34
2019-02-27T20:15:19.930Z,10.26
2019-02-27T20:17:48.053Z,10.08
2019-02-27T20:20:17.522Z,9.84
2019-02-27T20:22:46.582Z,9.68
2019-02-27T20:25:14.549Z,9.40
2019-02-27T20:27:43.075Z,9.17
2019-02-27T20:30:14.350Z,9.34
2019-02-27T20:32:43.109Z,9.28
2019-02-27T20:35:11.428Z,9.08
2019-02-27T20:37:40.263Z,8.96
2019-02-27T20:40:09.372Z,8.62
2019-02-27T20:42:37.358Z,8.70
2019-02-27T20:45:08.635Z,8.64
2019-02-27T20:47:37.274Z,8.63
2019-02-27T20:50:09.624Z,8.49
2019-02-27T20:52:42.604Z,8.43
2019-02-27T20:55:10.904Z,8.36
2019-02-27T20:57:42.265Z,8.18
2019-02-27T21:00:12.718Z,8.35
2019-02-27T21:02:40.669Z,8.40
2019-02-27T21:05:10.563Z,8.51
2019-02-27T21:07:38.493Z,8.35
2019-02-27T21:10:10.357Z,8.23
2019-02-27T21:12:40.829Z,8.54
2019-02-27T21:15:08.738Z,8.83
2019-02-27T21:17:38.928Z,9.06
2019-02-27T21:20:11.917Z,8.97
2019-02-27T21:22:40.116Z,9.00
2019-02-27T21:25:08.639Z,8.81
2019-02-27T21:27:36.394Z,8.74
2019-02-27T21:30:18.055Z,8.86
2019-02-27T21:32:41.203Z,9.32
2019-02-27T21:35:11.849Z,9.77
2019-02-27T21:37:44.545Z,9.88
2019-02-27T21:40:10.758Z,10.18
2019-02-27T21:42:38.369Z,10.34
2019-02-27T21:45:08.268Z,10.33
2019-02-27T21:47:38.340Z,10.09
2019-02-27T21:50:07.397Z,9.99
2019-02-27T21:52:35.098Z,9.99
2019-02-27T21:55:02.669Z,9.97
2019-02-27T21:57:30.184Z,9.93
2019-02-27T22:00:25.615Z,10.09
2019-02-27T22:03:03.901Z,10.00
2019-02-27T22:10:28.197Z,10.20
2019-02-27T22:12:53.065Z,10.05
2019-02-27T22:15:23.215Z,9.86
2019-02-27T22:17:50.738Z,9.95
2019-02-27T22:20:18.349Z,10.18
2019-02-27T22:22:45.728Z,10.11
2019-02-27T22:25:13.298Z,10.04
2019-02-27T22:27:43.278Z,9.93
2019-02-27T22:30:12.519Z,9.94
2019-02-27T22:32:39.908Z,9.88
2019-02-27T22:35:07.579Z,10.13
2019-02-27T22:37:35.009Z,9.96
2019-02-27T22:40:06.583Z,9.90
2019-02-27T22:42:31.963Z,9.94
2019-02-27T22:45:00.585Z,10.00
2019-02-27T22:47:28.824Z,10.29
2019-02-27T22:49:56.348Z,10.39
2019-02-27T22:52:23.848Z,10.24
2019-02-27T22:54:51.644Z,10.31
2019-02-27T22:57:19.050Z,10.27
2019-02-27T22:59:46.604Z,10.35
2019-02-27T23:02:14.174Z,10.40
2019-02-27T23:04:41.752Z,10.38
2019-02-27T23:07:09.483Z,10.34
2019-02-27T23:09:37.054Z,10.27
2019-02-27T23:12:04.684Z,10.36
2019-02-27T23:14:33.134Z,10.23
2019-02-27T23:17:01.295Z,10.17
2019-02-27T23:19:28.928Z,10.37
2019-02-27T23:21:57.575Z,10.36
2019-02-27T23:24:25.772Z,10.31
2019-02-27T23:26:54.922Z,10.23
2019-02-27T23:29:22.778Z,10.20
2019-02-27T23:31:50.313Z,10.18
2019-02-27T23:34:17.768Z,10.11
2019-02-27T23:36:45.281Z,10.11
2019-02-27T23:39:12.728Z,10.08
2019-02-27T23:41:40.283Z,10.06
2019-02-27T23:44:07.712Z,9.94
2019-02-27T23:46:35.193Z,9.85
2019-02-27T23:49:02.608Z,9.83
2019-02-27T23:51:30.143Z,9.73
2019-02-27T23:53:58.636Z,9.69
2019-02-27T23:56:26.943Z,9.60
2019-02-27T23:58:54.481Z,9.54
